createdAt,value
2018-03-06T00:00:30.953Z,966.05
2018-03-06T00:01:31.185Z,966.09
2018-03-06T00:02:31.427Z,966.03
2018-03-06T00:03:31.666Z,966.07
2018-03-06T00:04:31.904Z,966.11
2018-03-06T00:05:32.151Z,966.09
2018-03-06T00:06:32.394Z,966.10
2018-03-06T00:07:32.639Z,966.12
2018-03-06T00:08:32.872Z,966.11
2018-03-06T00:09:33.115Z,966.09
2018-03-06T00:10:33.355Z,966.12
2018-03-06T00:11:33.593Z,966.11
2018-03-06T00:12:33.851Z,966.10
2018-03-06T00:13:34.088Z,966.08
2018-03-06T00:14:34.327Z,966.15
2018-03-06T00:15:34.570Z,966.12
2018-03-06T00:16:34.817Z,966.07
2018-03-06T00:17:35.063Z,966.10
2018-03-06T00:18:35.296Z,966.06
2018-03-06T00:19:35.537Z,966.07
2018-03-06T00:20:35.777Z,966.07
2018-03-06T00:21:36.015Z,966.10
2018-03-06T00:22:36.257Z,966.07
2018-03-06T00:23:36.505Z,966.07
2018-03-06T00:24:36.750Z,966.08
2018-03-06T00:25:36.983Z,966.07
2018-03-06T00:26:37.231Z,966.07
2018-03-06T00:27:37.455Z,966.08
2018-03-06T00:28:37.700Z,966.03
2018-03-06T00:29:37.937Z,966.05
2018-03-06T00:30:38.173Z,966.11
2018-03-06T00:31:38.414Z,966.09
2018-03-06T00:32:38.653Z,966.06
2018-03-06T00:33:38.895Z,966.05
2018-03-06T00:34:39.139Z,966.09
2018-03-06T00:35:39.386Z,966.09
2018-03-06T00:36:39.618Z,966.09
2018-03-06T00:37:39.859Z,966.09
2018-03-06T00:38:40.100Z,966.05
2018-03-06T00:39:40.338Z,966.03
2018-03-06T00:40:40.581Z,966.03
2018-03-06T00:41:40.828Z,966.01
2018-03-06T00:42:41.072Z,966.03
2018-03-06T00:43:41.305Z,966.02
2018-03-06T00:44:49.522Z,966.00
2018-03-06T00:45:49.093Z,965.99
2018-03-06T00:46:49.349Z,965.91
2018-03-06T00:47:42.470Z,965.92
2018-03-06T00:48:42.717Z,965.93
2018-03-06T00:49:42.963Z,965.93
2018-03-06T00:50:43.193Z,965.91
2018-03-06T00:51:43.435Z,965.94
2018-03-06T00:52:43.675Z,965.89
2018-03-06T00:53:51.256Z,965.90
2018-03-06T00:54:51.498Z,965.89
2018-03-06T00:55:44.392Z,965.87
2018-03-06T00:56:44.636Z,965.86
2018-03-06T00:57:44.872Z,965.85
2018-03-06T00:58:45.114Z,965.85
2018-03-06T00:59:45.354Z,965.83
2018-03-06T01:00:45.600Z,965.78
2018-03-06T01:01:45.836Z,965.77
2018-03-06T01:02:46.075Z,965.76
2018-03-06T01:03:46.317Z,965.77
2018-03-06T01:04:46.558Z,965.75
2018-03-06T01:05:46.799Z,965.73
2018-03-06T01:06:47.040Z,965.73
2018-03-06T01:07:47.284Z,965.72
2018-03-06T01:08:47.517Z,965.70
2018-03-06T01:09:47.758Z,965.69
2018-03-06T01:10:47.996Z,965.74
2018-03-06T01:11:48.234Z,965.73
2018-03-06T01:12:48.478Z,965.71
2018-03-06T01:13:48.726Z,965.72
2018-03-06T01:14:48.973Z,965.72
2018-03-06T01:15:49.204Z,965.73
2018-03-06T01:16:49.445Z,965.75
2018-03-06T01:17:49.686Z,965.69
2018-03-06T01:18:49.925Z,965.71
2018-03-06T01:19:50.167Z,965.66
2018-03-06T01:20:50.415Z,965.67
2018-03-06T01:21:50.658Z,965.68
2018-03-06T01:22:50.894Z,965.66
2018-03-06T01:23:51.133Z,965.72
2018-03-06T01:24:51.374Z,965.68
2018-03-06T01:25:51.619Z,965.70
2018-03-06T01:26:51.856Z,965.67
2018-03-06T01:27:52.099Z,965.67
2018-03-06T01:28:52.344Z,965.68
2018-03-06T01:29:52.578Z,965.69
2018-03-06T01:30:52.818Z,965.63
2018-03-06T01:31:53.059Z,965.62
2018-03-06T01:32:53.297Z,965.61
2018-03-06T01:33:53.540Z,965.56
2018-03-06T01:34:53.787Z,965.61
2018-03-06T01:35:54.031Z,965.60
2018-03-06T01:36:54.263Z,965.58
2018-03-06T01:37:54.503Z,965.57
2018-03-06T01:38:54.744Z,965.53
2018-03-06T01:39:54.983Z,965.49
2018-03-06T01:40:55.224Z,965.52
2018-03-06T01:41:55.472Z,965.55
2018-03-06T01:42:55.717Z,965.48
2018-03-06T01:43:55.949Z,965.49
2018-03-06T01:44:56.190Z,965.46
2018-03-06T01:45:56.442Z,965.49
2018-03-06T01:46:56.667Z,965.48
2018-03-06T01:47:56.902Z,965.42
2018-03-06T01:48:57.141Z,965.41
2018-03-06T01:49:57.383Z,965.45
2018-03-06T01:50:57.618Z,965.38
2018-03-06T01:51:57.866Z,965.42
2018-03-06T01:52:58.106Z,965.43
2018-03-06T01:53:58.351Z,965.38
2018-03-06T01:54:58.585Z,965.38
2018-03-06T01:55:58.829Z,965.34
2018-03-06T01:56:59.063Z,965.36
2018-03-06T01:57:59.302Z,965.35
2018-03-06T01:58:59.544Z,965.34
2018-03-06T01:59:59.851Z,965.34
2018-03-06T02:01:00.043Z,965.35
2018-03-06T02:02:00.269Z,965.36
2018-03-06T02:03:00.509Z,965.36
2018-03-06T02:04:00.751Z,965.34
2018-03-06T02:05:00.991Z,965.35
2018-03-06T02:06:01.235Z,965.32
2018-03-06T02:07:01.480Z,965.28
2018-03-06T02:08:01.726Z,965.31
2018-03-06T02:09:01.961Z,965.31
2018-03-06T02:10:02.197Z,965.33
2018-03-06T02:11:02.438Z,965.31
2018-03-06T02:12:02.677Z,965.28
2018-03-06T02:13:02.920Z,965.30
2018-03-06T02:14:03.166Z,965.28
2018-03-06T02:15:03.411Z,965.29
2018-03-06T02:16:03.643Z,965.32
2018-03-06T02:17:03.883Z,965.28
2018-03-06T02:18:04.124Z,965.25
2018-03-06T02:19:04.364Z,965.24
2018-03-06T02:20:04.605Z,965.24
2018-03-06T02:21:04.852Z,965.28
2018-03-06T02:22:05.098Z,965.24
2018-03-06T02:23:05.330Z,965.26
2018-03-06T02:24:05.571Z,965.25
2018-03-06T02:25:05.835Z,965.23
2018-03-06T02:26:06.072Z,965.19
2018-03-06T02:27:06.310Z,965.15
2018-03-06T02:28:06.552Z,965.17
2018-03-06T02:29:06.788Z,965.15
2018-03-06T02:30:07.033Z,965.15
2018-03-06T02:31:07.278Z,965.19
2018-03-06T02:32:07.522Z,965.18
2018-03-06T02:33:07.754Z,965.15
2018-03-06T02:34:07.994Z,965.15
2018-03-06T02:35:08.234Z,965.13
2018-03-06T02:36:08.472Z,965.15
2018-03-06T02:37:08.715Z,965.10
2018-03-06T02:38:08.962Z,965.09
2018-03-06T02:39:09.207Z,965.12
2018-03-06T02:40:09.440Z,965.09
2018-03-06T02:41:09.684Z,965.06
2018-03-06T02:42:09.923Z,965.07
2018-03-06T02:43:10.158Z,965.07
2018-03-06T02:44:10.406Z,965.03
2018-03-06T02:45:10.637Z,965.06
2018-03-06T02:46:10.880Z,965.05
2018-03-06T02:47:11.171Z,965.09
2018-03-06T02:48:11.360Z,965.09
2018-03-06T02:49:11.600Z,965.08
2018-03-06T02:50:11.843Z,965.13
2018-03-06T02:51:12.080Z,965.08
2018-03-06T02:52:12.320Z,965.09
2018-03-06T02:53:12.560Z,965.07
2018-03-06T02:54:12.796Z,965.10
2018-03-06T02:55:13.042Z,965.05
2018-03-06T02:56:13.284Z,965.04
2018-03-06T02:57:13.529Z,965.08
2018-03-06T02:58:13.763Z,965.04
2018-03-06T02:59:14.003Z,965.01
2018-03-06T03:00:14.243Z,965.06
2018-03-06T03:01:14.485Z,965.03
2018-03-06T03:02:14.724Z,965.02
2018-03-06T03:03:14.969Z,965.00
2018-03-06T03:04:15.216Z,964.99
2018-03-06T03:05:15.448Z,964.97
2018-03-06T03:06:15.689Z,965.00
2018-03-06T03:07:15.932Z,965.00
2018-03-06T03:08:16.172Z,964.99
2018-03-06T03:09:16.411Z,964.96
2018-03-06T03:10:16.658Z,964.93
2018-03-06T03:11:16.903Z,964.89
2018-03-06T03:12:17.136Z,964.89
2018-03-06T03:13:17.376Z,964.92
2018-03-06T03:14:17.618Z,964.94
2018-03-06T03:15:17.853Z,964.94
2018-03-06T03:16:18.099Z,964.95
2018-03-06T03:17:18.344Z,964.94
2018-03-06T03:18:18.588Z,964.88
2018-03-06T03:19:18.823Z,964.91
2018-03-06T03:20:19.061Z,964.94
2018-03-06T03:21:19.302Z,964.93
2018-03-06T03:22:19.541Z,964.93
2018-03-06T03:23:19.784Z,964.92
2018-03-06T03:24:20.029Z,964.88
2018-03-06T03:25:20.277Z,964.89
2018-03-06T03:26:20.509Z,964.86
2018-03-06T03:27:20.750Z,964.86
2018-03-06T03:28:20.989Z,964.89
2018-03-06T03:29:21.230Z,964.91
2018-03-06T03:30:21.472Z,964.87
2018-03-06T03:31:21.709Z,964.90
2018-03-06T03:32:29.075Z,964.86
2018-03-06T03:33:29.692Z,964.84
2018-03-06T03:34:29.726Z,964.85
2018-03-06T03:35:29.984Z,964.88
2018-03-06T03:36:30.241Z,964.88
2018-03-06T03:37:30.500Z,964.86
2018-03-06T03:38:30.760Z,964.88
2018-03-06T03:39:31.026Z,964.84
2018-03-06T03:40:24.154Z,964.87
2018-03-06T03:42:55.958Z,964.80
2018-03-06T03:43:56.205Z,964.81
2018-03-06T03:44:56.444Z,964.78
2018-03-06T03:45:56.674Z,964.78
2018-03-06T03:46:56.914Z,964.72
2018-03-06T03:47:57.153Z,964.73
2018-03-06T03:48:57.400Z,964.76
2018-03-06T03:49:57.631Z,964.73
2018-03-06T03:50:57.871Z,964.77
2018-03-06T03:51:58.111Z,964.74
2018-03-06T03:52:58.349Z,964.78
2018-03-06T03:53:58.591Z,964.75
2018-03-06T03:54:58.839Z,964.73
2018-03-06T03:55:59.078Z,964.76
2018-03-06T03:56:59.314Z,964.76
2018-03-06T03:57:59.556Z,964.75
2018-03-06T03:58:59.796Z,964.74
2018-03-06T04:00:00.041Z,964.70
2018-03-06T04:01:00.273Z,964.70
2018-03-06T04:02:00.514Z,964.70
2018-03-06T04:03:00.753Z,964.72
2018-03-06T04:04:01.001Z,964.68
2018-03-06T04:05:01.238Z,964.69
2018-03-06T04:06:01.476Z,964.70
2018-03-06T04:07:01.725Z,964.71
2018-03-06T04:08:01.956Z,964.70
2018-03-06T04:09:02.198Z,964.71
2018-03-06T04:10:02.436Z,964.71
2018-03-06T04:11:02.678Z,964.69
2018-03-06T04:12:02.918Z,964.64
2018-03-06T04:13:03.162Z,964.60
2018-03-06T04:14:03.409Z,964.62
2018-03-06T04:15:03.644Z,964.61
2018-03-06T04:16:03.880Z,964.58
2018-03-06T04:17:04.119Z,964.62
2018-03-06T04:18:04.357Z,964.62
2018-03-06T04:19:04.600Z,964.63
2018-03-06T04:20:04.847Z,964.62
2018-03-06T04:21:05.094Z,964.63
2018-03-06T04:22:05.324Z,964.61
2018-03-06T04:23:05.564Z,964.58
2018-03-06T04:24:05.805Z,964.60
2018-03-06T04:25:06.045Z,964.58
2018-03-06T04:26:06.284Z,964.57
2018-03-06T04:27:06.530Z,964.56
2018-03-06T04:28:06.758Z,964.55
2018-03-06T04:29:06.996Z,964.54
2018-03-06T04:30:07.236Z,964.53
2018-03-06T04:31:07.489Z,964.53
2018-03-06T04:32:07.730Z,964.53
2018-03-06T04:33:07.963Z,964.54
2018-03-06T04:34:08.202Z,964.56
2018-03-06T04:35:08.443Z,964.58
2018-03-06T04:36:08.686Z,964.62
2018-03-06T04:37:08.924Z,964.58
2018-03-06T04:38:09.173Z,964.58
2018-03-06T04:39:09.409Z,964.58
2018-03-06T04:40:09.646Z,964.57
2018-03-06T04:41:09.886Z,964.57
2018-03-06T04:42:10.136Z,964.56
2018-03-06T04:43:10.351Z,964.58
2018-03-06T04:44:10.591Z,964.56
2018-03-06T04:45:10.839Z,964.60
2018-03-06T04:46:11.069Z,964.56
2018-03-06T04:47:11.314Z,964.54
2018-03-06T04:48:11.547Z,964.54
2018-03-06T04:49:11.786Z,964.51
2018-03-06T04:50:12.027Z,964.54
2018-03-06T04:51:12.263Z,964.55
2018-03-06T04:52:12.506Z,964.52
2018-03-06T04:53:12.754Z,964.53
2018-03-06T04:54:13.000Z,964.51
2018-03-06T04:55:13.231Z,964.52
2018-03-06T04:56:13.472Z,964.53
2018-03-06T04:57:13.713Z,964.52
2018-03-06T04:58:13.950Z,964.47
2018-03-06T04:59:14.193Z,964.48
2018-03-06T05:00:14.439Z,964.48
2018-03-06T05:01:14.680Z,964.49
2018-03-06T05:02:14.918Z,964.47
2018-03-06T05:03:15.158Z,964.47
2018-03-06T05:04:15.398Z,964.44
2018-03-06T05:05:15.636Z,964.48
2018-03-06T05:06:15.879Z,964.46
2018-03-06T05:07:16.126Z,964.45
2018-03-06T05:08:16.367Z,964.46
2018-03-06T05:09:16.603Z,964.46
2018-03-06T05:10:16.844Z,964.50
2018-03-06T05:11:17.084Z,964.43
2018-03-06T05:12:17.322Z,964.44
2018-03-06T05:13:17.564Z,964.45
2018-03-06T05:14:17.805Z,964.44
2018-03-06T05:15:18.043Z,964.45
2018-03-06T05:16:18.285Z,964.47
2018-03-06T05:17:18.525Z,964.44
2018-03-06T05:18:18.767Z,964.41
2018-03-06T05:19:19.009Z,964.41
2018-03-06T05:20:19.249Z,964.41
2018-03-06T05:21:19.496Z,964.43
2018-03-06T05:22:19.727Z,964.41
2018-03-06T05:23:19.968Z,964.40
2018-03-06T05:24:20.207Z,964.42
2018-03-06T05:25:20.450Z,964.43
2018-03-06T05:26:20.697Z,964.40
2018-03-06T05:27:20.928Z,964.41
2018-03-06T05:28:21.170Z,964.40
2018-03-06T05:29:21.413Z,964.41
2018-03-06T05:30:21.648Z,964.39
2018-03-06T05:31:21.890Z,964.41
2018-03-06T05:32:22.136Z,964.38
2018-03-06T05:33:22.381Z,964.42
2018-03-06T05:34:22.615Z,964.38
2018-03-06T05:35:22.855Z,964.36
2018-03-06T05:36:23.099Z,964.38
2018-03-06T05:37:23.333Z,964.38
2018-03-06T05:38:23.576Z,964.35
2018-03-06T05:39:23.822Z,964.34
2018-03-06T05:40:24.068Z,964.36
2018-03-06T05:41:24.301Z,964.37
2018-03-06T05:42:24.541Z,964.35
2018-03-06T05:44:56.346Z,964.34
2018-03-06T05:45:56.580Z,964.32
2018-03-06T05:46:56.820Z,964.34
2018-03-06T05:47:57.060Z,964.35
2018-03-06T05:48:57.302Z,964.32
2018-03-06T05:49:57.538Z,964.36
2018-03-06T05:50:57.778Z,964.34
2018-03-06T05:51:58.018Z,964.34
2018-03-06T05:52:58.264Z,964.35
2018-03-06T05:53:58.500Z,964.34
2018-03-06T05:54:58.741Z,964.34
2018-03-06T05:55:58.987Z,964.32
2018-03-06T05:56:59.218Z,964.31
2018-03-06T05:57:59.459Z,964.33
2018-03-06T05:58:59.699Z,964.31
2018-03-06T05:59:59.937Z,964.26
2018-03-06T06:01:00.185Z,964.30
2018-03-06T06:02:00.426Z,964.28
2018-03-06T06:03:00.673Z,964.30
2018-03-06T06:04:00.905Z,964.31
2018-03-06T06:05:01.144Z,964.33
2018-03-06T06:06:01.388Z,964.35
2018-03-06T06:07:01.623Z,964.31
2018-03-06T06:08:01.859Z,964.34
2018-03-06T06:09:02.100Z,964.33
2018-03-06T06:10:02.340Z,964.28
2018-03-06T06:11:02.582Z,964.29
2018-03-06T06:12:02.818Z,964.33
2018-03-06T06:13:03.063Z,964.32
2018-03-06T06:14:03.308Z,964.30
2018-03-06T06:15:03.545Z,964.24
2018-03-06T06:16:03.781Z,964.28
2018-03-06T06:17:04.024Z,964.31
2018-03-06T06:18:04.262Z,964.32
2018-03-06T06:19:04.507Z,964.32
2018-03-06T06:20:11.868Z,964.31
2018-03-06T06:21:12.128Z,964.32
2018-03-06T06:22:12.378Z,964.37
2018-03-06T06:23:12.638Z,964.33
2018-03-06T06:24:11.934Z,964.39
2018-03-06T06:25:05.980Z,964.37
2018-03-06T06:26:06.225Z,964.42
2018-03-06T06:27:06.459Z,964.41
2018-03-06T06:28:06.704Z,964.39
2018-03-06T06:29:06.945Z,964.36
2018-03-06T06:30:07.185Z,964.39
2018-03-06T06:31:07.426Z,964.35
2018-03-06T06:32:07.665Z,964.39
2018-03-06T06:33:07.912Z,964.37
2018-03-06T06:34:08.159Z,964.41
2018-03-06T06:35:08.390Z,964.41
2018-03-06T06:36:08.629Z,964.42
2018-03-06T06:37:08.869Z,964.43
2018-03-06T06:38:09.107Z,964.41
2018-03-06T06:39:09.352Z,964.42
2018-03-06T06:40:09.595Z,964.44
2018-03-06T06:41:09.843Z,964.44
2018-03-06T06:42:10.074Z,964.42
2018-03-06T06:43:10.313Z,964.43
2018-03-06T06:44:10.554Z,964.40
2018-03-06T06:45:10.791Z,964.43
2018-03-06T06:46:11.035Z,964.45
2018-03-06T06:47:11.281Z,964.48
2018-03-06T06:48:11.524Z,964.46
2018-03-06T06:49:11.761Z,964.49
2018-03-06T06:50:11.999Z,964.49
2018-03-06T06:51:12.230Z,964.50
2018-03-06T06:52:12.478Z,964.50
2018-03-06T06:53:12.720Z,964.47
2018-03-06T06:54:12.960Z,964.48
2018-03-06T06:55:13.200Z,964.49
2018-03-06T06:56:13.437Z,964.50
2018-03-06T06:57:13.669Z,964.52
2018-03-06T06:58:13.932Z,964.53
2018-03-06T06:59:14.168Z,964.50
2018-03-06T07:00:14.411Z,964.52
2018-03-06T07:01:14.657Z,964.49
2018-03-06T07:02:14.906Z,964.49
2018-03-06T07:03:15.135Z,964.48
2018-03-06T07:04:15.375Z,964.48
2018-03-06T07:05:15.616Z,964.50
2018-03-06T07:06:15.858Z,964.46
2018-03-06T07:07:16.090Z,964.48
2018-03-06T07:08:16.332Z,964.50
2018-03-06T07:09:16.569Z,964.47
2018-03-06T07:10:17.006Z,964.47
2018-03-06T07:11:17.043Z,964.48
2018-03-06T07:12:17.289Z,964.52
2018-03-06T07:13:17.553Z,964.50
2018-03-06T07:14:17.771Z,964.53
2018-03-06T07:15:18.008Z,964.48
2018-03-06T07:16:18.249Z,964.46
2018-03-06T07:17:18.491Z,964.44
2018-03-06T07:18:18.727Z,964.48
2018-03-06T07:19:18.969Z,964.47
2018-03-06T07:20:19.209Z,964.48
2018-03-06T07:21:19.452Z,964.45
2018-03-06T07:22:19.690Z,964.43
2018-03-06T07:23:19.934Z,964.45
2018-03-06T07:24:20.176Z,964.46
2018-03-06T07:25:20.407Z,964.43
2018-03-06T07:26:20.648Z,964.48
2018-03-06T07:27:20.889Z,964.45
2018-03-06T07:28:21.126Z,964.46
2018-03-06T07:29:21.370Z,964.45
2018-03-06T07:30:21.614Z,964.43
2018-03-06T07:31:21.859Z,964.45
2018-03-06T07:32:22.093Z,964.45
2018-03-06T07:33:22.333Z,964.50
2018-03-06T07:34:22.589Z,964.47
2018-03-06T07:35:22.822Z,964.48
2018-03-06T07:36:23.060Z,964.48
2018-03-06T07:37:23.320Z,964.48
2018-03-06T07:38:23.548Z,964.46
2018-03-06T07:39:23.779Z,964.47
2018-03-06T07:40:24.020Z,964.49
2018-03-06T07:41:24.261Z,964.47
2018-03-06T07:42:24.498Z,964.46
2018-03-06T07:43:24.740Z,964.48
2018-03-06T07:44:24.986Z,964.45
2018-03-06T07:45:25.255Z,964.40
2018-03-06T07:46:25.465Z,964.42
2018-03-06T07:47:25.704Z,964.41
2018-03-06T07:48:25.944Z,964.44
2018-03-06T07:49:26.191Z,964.40
2018-03-06T07:50:26.427Z,964.36
2018-03-06T07:51:26.673Z,964.39
2018-03-06T07:52:26.918Z,964.36
2018-03-06T07:53:27.164Z,964.37
2018-03-06T07:54:27.376Z,964.36
2018-03-06T07:55:27.622Z,964.36
2018-03-06T07:56:27.868Z,964.37
2018-03-06T07:57:28.100Z,964.30
2018-03-06T07:58:28.341Z,964.35
2018-03-06T07:59:28.581Z,964.39
2018-03-06T08:00:28.822Z,964.42
2018-03-06T08:01:29.063Z,964.42
2018-03-06T08:02:29.320Z,964.34
2018-03-06T08:03:29.552Z,964.35
2018-03-06T08:04:29.790Z,964.42
2018-03-06T08:05:30.018Z,964.35
2018-03-06T08:06:30.274Z,964.37
2018-03-06T08:07:30.504Z,964.33
2018-03-06T08:08:30.737Z,964.31
2018-03-06T08:09:30.979Z,964.31
2018-03-06T08:10:31.218Z,964.26
2018-03-06T08:11:31.457Z,964.31
2018-03-06T08:12:31.708Z,964.30
2018-03-06T08:13:31.945Z,964.29
2018-03-06T08:14:32.190Z,964.26
2018-03-06T08:15:32.427Z,964.20
2018-03-06T08:16:32.663Z,964.25
2018-03-06T08:17:32.903Z,964.22
2018-03-06T08:18:33.142Z,964.23
2018-03-06T08:19:33.384Z,964.25
2018-03-06T08:20:33.630Z,964.24
2018-03-06T08:21:33.875Z,964.28
2018-03-06T08:22:34.115Z,964.24
2018-03-06T08:23:34.346Z,964.24
2018-03-06T08:24:34.592Z,964.23
2018-03-06T08:25:34.829Z,964.20
2018-03-06T08:26:35.064Z,964.18
2018-03-06T08:27:35.303Z,964.19
2018-03-06T08:28:35.544Z,964.25
2018-03-06T08:29:35.783Z,964.20
2018-03-06T08:30:36.028Z,964.22
2018-03-06T08:31:36.270Z,964.20
2018-03-06T08:32:36.511Z,964.17
2018-03-06T08:33:36.744Z,964.20
2018-03-06T08:34:46.002Z,964.15
2018-03-06T08:35:37.224Z,964.19
2018-03-06T08:36:37.468Z,964.14
2018-03-06T08:37:37.702Z,964.13
2018-03-06T08:38:37.939Z,964.11
2018-03-06T08:39:38.183Z,964.12
2018-03-06T08:40:38.424Z,964.16
2018-03-06T08:41:38.666Z,964.15
2018-03-06T08:42:38.903Z,964.11
2018-03-06T08:43:39.147Z,964.14
2018-03-06T08:44:39.382Z,964.14
2018-03-06T08:45:39.624Z,964.16
2018-03-06T08:46:39.864Z,964.11
2018-03-06T08:47:40.102Z,964.07
2018-03-06T08:48:40.346Z,964.07
2018-03-06T08:49:40.587Z,964.07
2018-03-06T08:50:40.834Z,964.10
2018-03-06T08:51:41.063Z,964.05
2018-03-06T08:52:41.306Z,964.06
2018-03-06T08:53:41.548Z,964.08
2018-03-06T08:54:41.787Z,964.06
2018-03-06T08:55:42.027Z,964.05
2018-03-06T08:56:42.277Z,964.04
2018-03-06T08:57:42.572Z,964.05
2018-03-06T08:58:42.753Z,964.03
2018-03-06T08:59:42.995Z,964.02
2018-03-06T09:00:43.236Z,964.02
2018-03-06T09:01:43.475Z,964.01
2018-03-06T09:02:43.719Z,964.01
2018-03-06T09:03:43.960Z,964.00
2018-03-06T09:04:44.208Z,964.01
2018-03-06T09:05:44.441Z,964.03
2018-03-06T09:06:52.011Z,964.04
2018-03-06T09:07:44.910Z,964.00
2018-03-06T09:08:52.307Z,964.01
2018-03-06T09:09:52.574Z,963.97
2018-03-06T09:10:52.875Z,964.00
2018-03-06T09:11:53.338Z,964.01
2018-03-06T09:12:52.453Z,963.96
2018-03-06T09:13:46.498Z,963.95
2018-03-06T09:14:46.739Z,963.96
2018-03-06T09:15:46.979Z,963.97
2018-03-06T09:16:47.225Z,963.96
2018-03-06T09:17:47.484Z,963.97
2018-03-06T09:18:47.701Z,963.95
2018-03-06T09:19:47.942Z,963.94
2018-03-06T09:20:48.183Z,963.96
2018-03-06T09:21:48.419Z,963.96
2018-03-06T09:22:48.661Z,963.98
2018-03-06T09:23:48.900Z,963.95
2018-03-06T09:24:49.139Z,963.94
2018-03-06T09:25:49.378Z,963.95
2018-03-06T09:26:49.618Z,963.95
2018-03-06T09:27:49.859Z,963.98
2018-03-06T09:28:50.106Z,963.97
2018-03-06T09:29:50.338Z,963.96
2018-03-06T09:30:50.618Z,963.97
2018-03-06T09:31:50.827Z,963.97
2018-03-06T09:32:51.067Z,963.98
2018-03-06T09:33:51.306Z,963.98
2018-03-06T09:34:51.546Z,963.99
2018-03-06T09:35:51.792Z,964.02
2018-03-06T09:36:52.026Z,964.00
2018-03-06T09:37:52.265Z,964.02
2018-03-06T09:38:52.506Z,963.99
2018-03-06T09:39:52.745Z,964.01
2018-03-06T09:40:52.987Z,964.00
2018-03-06T09:41:53.233Z,963.99
2018-03-06T09:42:53.478Z,963.99
2018-03-06T09:43:53.709Z,963.98
2018-03-06T09:44:53.948Z,963.98
2018-03-06T09:45:54.190Z,963.99
2018-03-06T09:46:54.430Z,963.99
2018-03-06T09:47:54.671Z,964.01
2018-03-06T09:48:54.920Z,963.98
2018-03-06T09:49:55.165Z,963.96
2018-03-06T09:50:55.397Z,963.97
2018-03-06T09:51:55.638Z,963.96
2018-03-06T09:52:55.878Z,963.91
2018-03-06T09:53:56.118Z,963.95
2018-03-06T09:54:56.360Z,963.92
2018-03-06T09:55:56.606Z,963.95
2018-03-06T09:56:57.147Z,963.94
2018-03-06T09:57:57.085Z,963.91
2018-03-06T09:58:57.325Z,963.90
2018-03-06T09:59:57.567Z,963.89
2018-03-06T10:00:57.804Z,963.87
2018-03-06T10:01:58.042Z,963.89
2018-03-06T10:02:58.304Z,963.90
2018-03-06T10:03:58.529Z,963.85
2018-03-06T10:04:58.768Z,963.87
2018-03-06T10:05:59.010Z,963.84
2018-03-06T10:06:59.250Z,963.84
2018-03-06T10:07:59.494Z,963.80
2018-03-06T10:08:59.729Z,963.81
2018-03-06T10:09:59.966Z,963.80
2018-03-06T10:11:00.206Z,963.80
2018-03-06T10:12:00.447Z,963.80
2018-03-06T10:13:00.688Z,963.77
2018-03-06T10:14:00.930Z,963.77
2018-03-06T10:15:01.173Z,963.79
2018-03-06T10:16:01.409Z,963.75
2018-03-06T10:17:01.658Z,963.81
2018-03-06T10:18:01.877Z,963.75
2018-03-06T10:19:02.123Z,963.76
2018-03-06T10:20:02.360Z,963.75
2018-03-06T10:21:02.597Z,963.73
2018-03-06T10:22:02.839Z,963.72
2018-03-06T10:23:03.078Z,963.72
2018-03-06T10:24:03.318Z,963.74
2018-03-06T10:25:03.566Z,963.75
2018-03-06T10:26:03.815Z,963.76
2018-03-06T10:27:04.044Z,963.75
2018-03-06T10:28:04.290Z,963.74
2018-03-06T10:29:04.523Z,963.73
2018-03-06T10:30:04.763Z,963.74
2018-03-06T10:31:05.008Z,963.71
2018-03-06T10:32:05.253Z,963.71
2018-03-06T10:33:05.495Z,963.68
2018-03-06T10:34:05.732Z,963.69
2018-03-06T10:35:05.969Z,963.67
2018-03-06T10:36:06.210Z,963.69
2018-03-06T10:37:06.447Z,963.67
2018-03-06T10:38:06.688Z,963.69
2018-03-06T10:39:06.937Z,963.67
2018-03-06T10:40:07.181Z,963.64
2018-03-06T10:41:07.414Z,963.66
2018-03-06T10:42:07.654Z,963.66
2018-03-06T10:43:07.906Z,963.65
2018-03-06T10:44:08.131Z,963.65
2018-03-06T10:45:08.373Z,963.65
2018-03-06T10:46:08.621Z,963.61
2018-03-06T10:47:08.868Z,963.62
2018-03-06T10:48:09.099Z,963.63
2018-03-06T10:49:09.340Z,963.62
2018-03-06T10:50:09.581Z,963.62
2018-03-06T10:51:09.818Z,963.58
2018-03-06T10:52:10.060Z,963.57
2018-03-06T10:53:10.311Z,963.57
2018-03-06T10:54:10.551Z,963.55
2018-03-06T10:55:10.827Z,963.54
2018-03-06T10:56:11.016Z,963.55
2018-03-06T10:57:11.259Z,963.52
2018-03-06T10:58:11.500Z,963.50
2018-03-06T10:59:11.739Z,963.51
2018-03-06T11:00:11.982Z,963.48
2018-03-06T11:01:12.229Z,963.48
2018-03-06T11:02:12.467Z,963.51
2018-03-06T11:03:12.701Z,963.49
2018-03-06T11:04:12.947Z,963.49
2018-03-06T11:05:13.192Z,963.50
2018-03-06T11:06:13.428Z,963.50
2018-03-06T11:07:13.665Z,963.50
2018-03-06T11:08:13.944Z,963.47
2018-03-06T11:09:14.163Z,963.46
2018-03-06T11:10:14.387Z,963.50
2018-03-06T11:11:14.631Z,963.48
2018-03-06T11:12:14.872Z,963.44
2018-03-06T11:13:15.105Z,963.39
2018-03-06T11:14:15.354Z,963.41
2018-03-06T11:15:15.588Z,963.41
2018-03-06T11:16:15.828Z,963.36
2018-03-06T11:17:16.069Z,963.37
2018-03-06T11:18:16.319Z,963.36
2018-03-06T11:19:16.562Z,963.36
2018-03-06T11:20:16.797Z,963.32
2018-03-06T11:21:17.039Z,963.31
2018-03-06T11:22:17.288Z,963.30
2018-03-06T11:23:17.527Z,963.30
2018-03-06T11:24:17.770Z,963.27
2018-03-06T11:25:17.994Z,963.24
2018-03-06T11:26:18.254Z,963.27
2018-03-06T11:27:18.485Z,963.26
2018-03-06T11:28:18.729Z,963.21
2018-03-06T11:29:18.966Z,963.23
2018-03-06T11:30:19.207Z,963.24
2018-03-06T11:31:19.447Z,963.24
2018-03-06T11:32:19.713Z,963.23
2018-03-06T11:33:19.935Z,963.21
2018-03-06T11:34:20.170Z,963.21
2018-03-06T11:35:20.409Z,963.19
2018-03-06T11:36:20.650Z,963.15
2018-03-06T11:37:20.889Z,963.13
2018-03-06T11:38:21.132Z,963.13
2018-03-06T11:39:21.375Z,963.08
2018-03-06T11:40:21.614Z,963.09
2018-03-06T11:41:21.855Z,963.07
2018-03-06T11:42:22.165Z,963.05
2018-03-06T11:43:22.335Z,963.09
2018-03-06T11:44:22.575Z,963.10
2018-03-06T11:45:22.816Z,963.07
2018-03-06T11:46:23.063Z,963.02
2018-03-06T11:47:23.308Z,963.04
2018-03-06T11:48:23.544Z,963.06
2018-03-06T11:49:23.778Z,963.02
2018-03-06T11:50:24.020Z,962.98
2018-03-06T11:51:24.258Z,963.01
2018-03-06T11:52:24.499Z,963.00
2018-03-06T11:53:32.070Z,962.95
2018-03-06T11:54:32.099Z,962.93
2018-03-06T11:55:32.363Z,962.91
2018-03-06T11:56:32.616Z,962.92
2018-03-06T11:57:32.873Z,962.91
2018-03-06T11:58:33.132Z,962.90
2018-03-06T11:59:33.393Z,962.88
2018-03-06T12:00:33.665Z,962.93
2018-03-06T12:01:26.791Z,962.88
2018-03-06T12:02:27.027Z,962.86
2018-03-06T12:03:27.275Z,962.87
2018-03-06T12:04:27.509Z,962.87
2018-03-06T12:05:27.757Z,962.86
2018-03-06T12:06:27.996Z,962.90
2018-03-06T12:07:28.238Z,962.93
2018-03-06T12:08:28.637Z,962.87
2018-03-06T12:09:28.716Z,962.89
2018-03-06T12:10:28.959Z,962.94
2018-03-06T12:11:29.204Z,962.90
2018-03-06T12:12:29.435Z,962.91
2018-03-06T12:13:29.935Z,962.88
2018-03-06T12:14:29.920Z,962.91
2018-03-06T12:15:30.158Z,962.86
2018-03-06T12:16:30.401Z,962.93
2018-03-06T12:17:30.649Z,962.91
2018-03-06T12:18:30.893Z,962.96
2018-03-06T12:19:31.128Z,962.92
2018-03-06T12:20:31.370Z,962.90
2018-03-06T12:21:31.612Z,962.92
2018-03-06T12:22:31.851Z,962.89
2018-03-06T12:23:32.092Z,962.90
2018-03-06T12:24:32.334Z,962.89
2018-03-06T12:25:32.579Z,962.90
2018-03-06T12:26:32.812Z,962.89
2018-03-06T12:27:33.053Z,962.88
2018-03-06T12:28:33.293Z,962.84
2018-03-06T12:29:33.532Z,962.89
2018-03-06T12:30:33.772Z,962.87
2018-03-06T12:31:34.025Z,962.87
2018-03-06T12:32:34.266Z,962.85
2018-03-06T12:33:34.501Z,962.87
2018-03-06T12:34:34.741Z,962.84